sensor_id;sensor_type;location;lat;lon;timestamp;P1;durP1;ratioP1;P2;durP2;ratioP2
22603;SDS011;11469;49.024;8.246;2023-07-20T00:01:22;4.13;;;1.70;;
22603;SDS011;11469;49.024;8.246;2023-07-20T00:03:47;7.22;;;1.70;;
22603;SDS011;11469;49.024;8.246;2023-07-20T00:06:26;5.55;;;1.85;;
22603;SDS011;11469;49.024;8.246;2023-07-20T00:08:55;5.78;;;2.22;;
22603;SDS011;11469;49.024;8.246;2023-07-20T00:11:21;5.38;;;2.28;;
22603;SDS011;11469;49.024;8.246;2023-07-20T00:13:51;3.25;;;1.55;;
22603;SDS011;11469;49.024;8.246;2023-07-20T00:16:17;5.25;;;1.95;;
22603;SDS011;11469;49.024;8.246;2023-07-20T00:18:42;6.00;;;1.83;;
22603;SDS011;11469;49.024;8.246;2023-07-20T00:21:08;3.40;;;1.77;;
22603;SDS011;11469;49.024;8.246;2023-07-20T00:23:34;3.92;;;1.80;;
22603;SDS011;11469;49.024;8.246;2023-07-20T00:26:00;4.35;;;1.80;;
22603;SDS011;11469;49.024;8.246;2023-07-20T00:28:25;3.28;;;1.40;;
22603;SDS011;11469;49.024;8.246;2023-07-20T00:30:51;6.03;;;2.08;;
22603;SDS011;11469;49.024;8.246;2023-07-20T00:33:16;3.83;;;1.60;;
22603;SDS011;11469;49.024;8.246;2023-07-20T00:35:43;6.38;;;1.90;;
22603;SDS011;11469;49.024;8.246;2023-07-20T00:38:08;4.82;;;2.10;;
22603;SDS011;11469;49.024;8.246;2023-07-20T00:40:40;4.70;;;1.77;;
22603;SDS011;11469;49.024;8.246;2023-07-20T00:43:06;4.15;;;1.73;;
22603;SDS011;11469;49.024;8.246;2023-07-20T00:45:33;4.03;;;1.60;;
22603;SDS011;11469;49.024;8.246;2023-07-20T00:47:59;11.82;;;1.90;;
22603;SDS011;11469;49.024;8.246;2023-07-20T00:50:26;3.00;;;1.67;;
22603;SDS011;11469;49.024;8.246;2023-07-20T00:52:54;3.63;;;1.80;;
22603;SDS011;11469;49.024;8.246;2023-07-20T00:55:20;4.25;;;1.90;;
22603;SDS011;11469;49.024;8.246;2023-07-20T00:57:46;5.57;;;2.05;;
22603;SDS011;11469;49.024;8.246;2023-07-20T01:00:12;3.47;;;1.67;;
22603;SDS011;11469;49.024;8.246;2023-07-20T01:02:38;5.63;;;1.95;;
22603;SDS011;11469;49.024;8.246;2023-07-20T01:05:03;5.40;;;2.10;;
22603;SDS011;11469;49.024;8.246;2023-07-20T01:07:32;6.78;;;2.45;;
22603;SDS011;11469;49.024;8.246;2023-07-20T01:12:50;9.18;;;2.10;;
22603;SDS011;11469;49.024;8.246;2023-07-20T01:15:17;5.18;;;1.98;;
22603;SDS011;11469;49.024;8.246;2023-07-20T01:17:43;7.47;;;1.95;;
22603;SDS011;11469;49.024;8.246;2023-07-20T01:20:10;5.35;;;2.47;;
22603;SDS011;11469;49.024;8.246;2023-07-20T01:25:46;3.03;;;2.00;;
22603;SDS011;11469;49.024;8.246;2023-07-20T01:33:50;6.45;;;2.47;;
22603;SDS011;11469;49.024;8.246;2023-07-20T01:36:17;4.20;;;2.13;;
22603;SDS011;11469;49.024;8.246;2023-07-20T01:38:44;7.32;;;2.28;;
22603;SDS011;11469;49.024;8.246;2023-07-20T01:41:11;5.05;;;2.03;;
22603;SDS011;11469;49.024;8.246;2023-07-20T01:43:36;4.20;;;1.92;;
22603;SDS011;11469;49.024;8.246;2023-07-20T01:46:02;7.25;;;2.40;;
22603;SDS011;11469;49.024;8.246;2023-07-20T01:48:27;12.98;;;2.00;;
22603;SDS011;11469;49.024;8.246;2023-07-20T01:50:53;4.05;;;2.08;;
22603;SDS011;11469;49.024;8.246;2023-07-20T01:53:20;3.92;;;2.20;;
22603;SDS011;11469;49.024;8.246;2023-07-20T01:55:45;4.45;;;2.25;;
22603;SDS011;11469;49.024;8.246;2023-07-20T01:58:11;4.53;;;2.00;;
22603;SDS011;11469;49.024;8.246;2023-07-20T02:00:37;4.68;;;2.00;;
22603;SDS011;11469;49.024;8.246;2023-07-20T02:03:03;4.15;;;1.98;;
22603;SDS011;11469;49.024;8.246;2023-07-20T02:05:28;4.65;;;2.28;;
22603;SDS011;11469;49.024;8.246;2023-07-20T02:07:54;6.57;;;2.08;;
22603;SDS011;11469;49.024;8.246;2023-07-20T02:10:19;5.38;;;2.22;;
22603;SDS011;11469;49.024;8.246;2023-07-20T02:12:45;6.20;;;2.20;;
22603;SDS011;11469;49.024;8.246;2023-07-20T02:15:10;5.88;;;2.22;;
22603;SDS011;11469;49.024;8.246;2023-07-20T02:17:38;2.65;;;1.88;;
22603;SDS011;11469;49.024;8.246;2023-07-20T02:20:06;4.82;;;2.33;;
22603;SDS011;11469;49.024;8.246;2023-07-20T02:22:34;4.55;;;2.25;;
22603;SDS011;11469;49.024;8.246;2023-07-20T02:24:59;5.65;;;2.30;;
22603;SDS011;11469;49.024;8.246;2023-07-20T02:27:24;7.18;;;2.33;;
22603;SDS011;11469;49.024;8.246;2023-07-20T02:29:50;2.45;;;1.75;;
22603;SDS011;11469;49.024;8.246;2023-07-20T02:32:15;8.80;;;2.70;;
22603;SDS011;11469;49.024;8.246;2023-07-20T02:34:41;5.25;;;2.10;;
22603;SDS011;11469;49.024;8.246;2023-07-20T02:37:06;9.60;;;2.53;;
22603;SDS011;11469;49.024;8.246;2023-07-20T02:39:32;6.60;;;2.08;;
22603;SDS011;11469;49.024;8.246;2023-07-20T02:41:57;4.88;;;2.08;;
22603;SDS011;11469;49.024;8.246;2023-07-20T02:44:23;6.13;;;2.53;;
22603;SDS011;11469;49.024;8.246;2023-07-20T02:46:48;7.05;;;2.33;;
22603;SDS011;11469;49.024;8.246;2023-07-20T02:49:17;4.57;;;2.35;;
22603;SDS011;11469;49.024;8.246;2023-07-20T02:51:42;10.10;;;2.80;;
22603;SDS011;11469;49.024;8.246;2023-07-20T02:54:08;3.45;;;2.00;;
22603;SDS011;11469;49.024;8.246;2023-07-20T02:56:33;5.13;;;2.03;;
22603;SDS011;11469;49.024;8.246;2023-07-20T02:58:58;9.32;;;2.42;;
22603;SDS011;11469;49.024;8.246;2023-07-20T03:01:24;8.80;;;2.33;;
22603;SDS011;11469;49.024;8.246;2023-07-20T03:03:49;10.55;;;2.60;;
22603;SDS011;11469;49.024;8.246;2023-07-20T03:06:15;5.32;;;2.55;;
22603;SDS011;11469;49.024;8.246;2023-07-20T03:08:41;5.10;;;2.90;;
22603;SDS011;11469;49.024;8.246;2023-07-20T03:11:10;5.13;;;2.33;;
22603;SDS011;11469;49.024;8.246;2023-07-20T03:13:35;4.03;;;2.10;;
22603;SDS011;11469;49.024;8.246;2023-07-20T03:16:01;5.10;;;2.20;;
22603;SDS011;11469;49.024;8.246;2023-07-20T03:18:26;6.00;;;2.85;;
22603;SDS011;11469;49.024;8.246;2023-07-20T03:20:51;5.90;;;2.63;;
22603;SDS011;11469;49.024;8.246;2023-07-20T03:23:17;4.47;;;2.35;;
22603;SDS011;11469;49.024;8.246;2023-07-20T03:25:42;7.82;;;2.55;;
22603;SDS011;11469;49.024;8.246;2023-07-20T03:28:07;5.57;;;2.75;;
22603;SDS011;11469;49.024;8.246;2023-07-20T03:30:33;7.38;;;2.10;;
22603;SDS011;11469;49.024;8.246;2023-07-20T03:33:00;4.03;;;2.40;;
22603;SDS011;11469;49.024;8.246;2023-07-20T03:35:25;5.95;;;2.78;;
22603;SDS011;11469;49.024;8.246;2023-07-20T03:37:50;4.75;;;2.33;;
22603;SDS011;11469;49.024;8.246;2023-07-20T03:40:16;4.60;;;3.08;;
22603;SDS011;11469;49.024;8.246;2023-07-20T03:42:41;5.30;;;2.90;;
22603;SDS011;11469;49.024;8.246;2023-07-20T03:45:07;5.05;;;2.78;;
22603;SDS011;11469;49.024;8.246;2023-07-20T03:47:32;4.45;;;2.70;;
22603;SDS011;11469;49.024;8.246;2023-07-20T03:49:58;8.98;;;2.95;;
22603;SDS011;11469;49.024;8.246;2023-07-20T03:52:23;7.53;;;3.10;;
22603;SDS011;11469;49.024;8.246;2023-07-20T03:54:49;4.88;;;2.58;;
22603;SDS011;11469;49.024;8.246;2023-07-20T03:57:16;9.43;;;3.05;;
22603;SDS011;11469;49.024;8.246;2023-07-20T03:59:44;5.38;;;2.58;;
22603;SDS011;11469;49.024;8.246;2023-07-20T04:02:11;7.80;;;2.75;;
22603;SDS011;11469;49.024;8.246;2023-07-20T04:04:36;6.47;;;3.28;;
22603;SDS011;11469;49.024;8.246;2023-07-20T04:07:02;11.00;;;3.00;;
22603;SDS011;11469;49.024;8.246;2023-07-20T04:09:27;5.57;;;2.80;;
22603;SDS011;11469;49.024;8.246;2023-07-20T04:11:52;5.80;;;3.10;;
22603;SDS011;11469;49.024;8.246;2023-07-20T04:14:18;5.82;;;3.05;;
22603;SDS011;11469;49.024;8.246;2023-07-20T04:16:45;7.03;;;3.30;;
22603;SDS011;11469;49.024;8.246;2023-07-20T04:19:11;4.55;;;2.90;;
22603;SDS011;11469;49.024;8.246;2023-07-20T04:21:40;5.30;;;2.35;;
22603;SDS011;11469;49.024;8.246;2023-07-20T04:24:06;5.20;;;2.88;;
22603;SDS011;11469;49.024;8.246;2023-07-20T04:26:31;6.78;;;3.50;;
22603;SDS011;11469;49.024;8.246;2023-07-20T04:28:57;5.13;;;2.78;;
22603;SDS011;11469;49.024;8.246;2023-07-20T04:31:24;5.53;;;2.90;;
22603;SDS011;11469;49.024;8.246;2023-07-20T04:33:49;6.30;;;3.17;;
22603;SDS011;11469;49.024;8.246;2023-07-20T04:36:15;7.50;;;2.90;;
22603;SDS011;11469;49.024;8.246;2023-07-20T04:38:44;7.75;;;2.97;;
22603;SDS011;11469;49.024;8.246;2023-07-20T04:41:10;16.85;;;3.15;;
22603;SDS011;11469;49.024;8.246;2023-07-20T04:43:37;13.07;;;3.38;;
22603;SDS011;11469;49.024;8.246;2023-07-20T04:46:06;6.50;;;3.05;;
22603;SDS011;11469;49.024;8.246;2023-07-20T04:48:31;8.93;;;3.15;;
22603;SDS011;11469;49.024;8.246;2023-07-20T04:50:57;5.20;;;3.20;;
22603;SDS011;11469;49.024;8.246;2023-07-20T04:53:22;4.88;;;2.65;;
22603;SDS011;11469;49.024;8.246;2023-07-20T04:55:48;9.38;;;3.38;;
22603;SDS011;11469;49.024;8.246;2023-07-20T04:58:15;9.10;;;3.30;;
22603;SDS011;11469;49.024;8.246;2023-07-20T05:00:42;8.15;;;3.17;;
22603;SDS011;11469;49.024;8.246;2023-07-20T05:03:07;7.03;;;3.25;;
22603;SDS011;11469;49.024;8.246;2023-07-20T05:05:32;8.85;;;3.00;;
22603;SDS011;11469;49.024;8.246;2023-07-20T05:07:58;8.82;;;2.80;;
22603;SDS011;11469;49.024;8.246;2023-07-20T05:10:23;6.03;;;3.13;;
22603;SDS011;11469;49.024;8.246;2023-07-20T05:12:49;7.65;;;3.35;;
22603;SDS011;11469;49.024;8.246;2023-07-20T05:15:14;14.35;;;4.20;;
22603;SDS011;11469;49.024;8.246;2023-07-20T05:17:40;4.90;;;2.90;;
22603;SDS011;11469;49.024;8.246;2023-07-20T05:20:06;6.03;;;3.28;;
22603;SDS011;11469;49.024;8.246;2023-07-20T05:22:31;9.15;;;3.35;;
22603;SDS011;11469;49.024;8.246;2023-07-20T05:24:57;8.35;;;4.15;;
22603;SDS011;11469;49.024;8.246;2023-07-20T05:27:22;11.55;;;4.20;;
22603;SDS011;11469;49.024;8.246;2023-07-20T05:29:48;5.57;;;3.15;;
22603;SDS011;11469;49.024;8.246;2023-07-20T05:32:13;8.00;;;3.38;;
22603;SDS011;11469;49.024;8.246;2023-07-20T05:34:39;4.20;;;2.72;;
22603;SDS011;11469;49.024;8.246;2023-07-20T05:37:05;8.85;;;2.95;;
22603;SDS011;11469;49.024;8.246;2023-07-20T05:39:32;6.68;;;3.17;;
22603;SDS011;11469;49.024;8.246;2023-07-20T05:41:57;5.75;;;2.92;;
22603;SDS011;11469;49.024;8.246;2023-07-20T05:44:23;9.15;;;2.90;;
22603;SDS011;11469;49.024;8.246;2023-07-20T05:46:48;13.02;;;3.97;;
22603;SDS011;11469;49.024;8.246;2023-07-20T05:49:15;7.82;;;3.25;;
22603;SDS011;11469;49.024;8.246;2023-07-20T05:51:40;12.30;;;3.33;;
22603;SDS011;11469;49.024;8.246;2023-07-20T05:54:05;7.40;;;3.47;;
22603;SDS011;11469;49.024;8.246;2023-07-20T05:56:31;11.75;;;3.47;;
22603;SDS011;11469;49.024;8.246;2023-07-20T05:58:56;10.05;;;3.42;;
22603;SDS011;11469;49.024;8.246;2023-07-20T06:01:22;9.23;;;3.92;;
22603;SDS011;11469;49.024;8.246;2023-07-20T06:03:47;6.43;;;2.85;;
22603;SDS011;11469;49.024;8.246;2023-07-20T06:06:13;11.32;;;3.80;;
22603;SDS011;11469;49.024;8.246;2023-07-20T06:08:38;17.70;;;3.22;;
22603;SDS011;11469;49.024;8.246;2023-07-20T06:11:03;11.77;;;3.40;;
22603;SDS011;11469;49.024;8.246;2023-07-20T06:13:29;21.13;;;3.38;;
22603;SDS011;11469;49.024;8.246;2023-07-20T06:15:55;9.73;;;3.50;;
22603;SDS011;11469;49.024;8.246;2023-07-20T06:18:23;6.88;;;2.83;;
22603;SDS011;11469;49.024;8.246;2023-07-20T06:20:51;17.83;;;2.90;;
22603;SDS011;11469;49.024;8.246;2023-07-20T06:23:18;13.50;;;3.03;;
22603;SDS011;11469;49.024;8.246;2023-07-20T06:25:44;5.13;;;2.55;;
22603;SDS011;11469;49.024;8.246;2023-07-20T06:28:10;10.77;;;2.78;;
22603;SDS011;11469;49.024;8.246;2023-07-20T06:30:35;7.78;;;2.80;;
22603;SDS011;11469;49.024;8.246;2023-07-20T06:33:00;5.57;;;2.20;;
22603;SDS011;11469;49.024;8.246;2023-07-20T06:35:26;8.52;;;2.80;;
22603;SDS011;11469;49.024;8.246;2023-07-20T06:37:51;9.10;;;2.78;;
22603;SDS011;11469;49.024;8.246;2023-07-20T06:40:17;7.22;;;2.70;;
22603;SDS011;11469;49.024;8.246;2023-07-20T06:42:42;13.05;;;2.80;;
22603;SDS011;11469;49.024;8.246;2023-07-20T06:45:08;6.60;;;2.60;;
22603;SDS011;11469;49.024;8.246;2023-07-20T06:47:34;8.75;;;3.25;;
22603;SDS011;11469;49.024;8.246;2023-07-20T06:49:59;11.68;;;3.08;;
22603;SDS011;11469;49.024;8.246;2023-07-20T06:52:25;8.73;;;3.00;;
22603;SDS011;11469;49.024;8.246;2023-07-20T06:54:50;7.57;;;2.60;;
22603;SDS011;11469;49.024;8.246;2023-07-20T06:57:16;7.15;;;2.58;;
22603;SDS011;11469;49.024;8.246;2023-07-20T06:59:41;8.05;;;2.45;;
22603;SDS011;11469;49.024;8.246;2023-07-20T07:02:07;8.77;;;3.13;;
22603;SDS011;11469;49.024;8.246;2023-07-20T07:04:33;8.85;;;2.75;;
22603;SDS011;11469;49.024;8.246;2023-07-20T07:06:59;9.25;;;2.50;;
22603;SDS011;11469;49.024;8.246;2023-07-20T07:09:25;7.95;;;2.50;;
22603;SDS011;11469;49.024;8.246;2023-07-20T07:11:50;11.18;;;2.20;;
22603;SDS011;11469;49.024;8.246;2023-07-20T07:14:15;26.20;;;2.60;;
22603;SDS011;11469;49.024;8.246;2023-07-20T07:16:41;6.18;;;2.58;;
22603;SDS011;11469;49.024;8.246;2023-07-20T07:19:06;7.97;;;2.40;;
22603;SDS011;11469;49.024;8.246;2023-07-20T07:21:32;7.60;;;2.22;;
22603;SDS011;11469;49.024;8.246;2023-07-20T07:23:57;7.43;;;2.50;;
22603;SDS011;11469;49.024;8.246;2023-07-20T07:26:24;5.95;;;2.20;;
22603;SDS011;11469;49.024;8.246;2023-07-20T07:28:50;6.43;;;2.05;;
22603;SDS011;11469;49.024;8.246;2023-07-20T07:31:15;5.78;;;2.47;;
22603;SDS011;11469;49.024;8.246;2023-07-20T07:33:41;7.75;;;1.80;;
22603;SDS011;11469;49.024;8.246;2023-07-20T07:36:06;6.82;;;2.08;;
22603;SDS011;11469;49.024;8.246;2023-07-20T07:38:32;5.50;;;1.80;;
22603;SDS011;11469;49.024;8.246;2023-07-20T07:40:57;6.05;;;1.80;;
22603;SDS011;11469;49.024;8.246;2023-07-20T07:43:23;6.97;;;1.80;;
22603;SDS011;11469;49.024;8.246;2023-07-20T07:45:49;4.68;;;1.90;;
22603;SDS011;11469;49.024;8.246;2023-07-20T07:48:14;6.80;;;1.70;;
22603;SDS011;11469;49.024;8.246;2023-07-20T07:50:39;3.45;;;1.73;;
22603;SDS011;11469;49.024;8.246;2023-07-20T07:53:05;4.88;;;1.88;;
22603;SDS011;11469;49.024;8.246;2023-07-20T07:55:32;6.38;;;1.80;;
22603;SDS011;11469;49.024;8.246;2023-07-20T07:57:57;4.25;;;1.90;;
22603;SDS011;11469;49.024;8.246;2023-07-20T08:00:23;4.47;;;1.63;;
22603;SDS011;11469;49.024;8.246;2023-07-20T08:02:49;9.13;;;2.00;;
22603;SDS011;11469;49.024;8.246;2023-07-20T08:05:15;16.55;;;2.08;;
22603;SDS011;11469;49.024;8.246;2023-07-20T08:07:41;6.75;;;2.08;;
22603;SDS011;11469;49.024;8.246;2023-07-20T08:10:07;3.72;;;1.67;;
22603;SDS011;11469;49.024;8.246;2023-07-20T08:12:33;8.48;;;1.85;;
22603;SDS011;11469;49.024;8.246;2023-07-20T08:14:58;3.20;;;1.70;;
22603;SDS011;11469;49.024;8.246;2023-07-20T08:17:24;9.02;;;1.90;;
22603;SDS011;11469;49.024;8.246;2023-07-20T08:19:49;4.85;;;1.70;;
22603;SDS011;11469;49.024;8.246;2023-07-20T08:22:15;6.07;;;2.20;;
22603;SDS011;11469;49.024;8.246;2023-07-20T08:24:41;7.05;;;1.60;;
22603;SDS011;11469;49.024;8.246;2023-07-20T08:27:07;4.53;;;1.90;;
22603;SDS011;11469;49.024;8.246;2023-07-20T08:29:33;11.35;;;2.20;;
22603;SDS011;11469;49.024;8.246;2023-07-20T08:31:59;4.97;;;1.27;;
22603;SDS011;11469;49.024;8.246;2023-07-20T08:34:24;5.70;;;1.77;;
22603;SDS011;11469;49.024;8.246;2023-07-20T08:36:50;4.18;;;1.38;;
22603;SDS011;11469;49.024;8.246;2023-07-20T08:39:15;5.05;;;1.63;;
22603;SDS011;11469;49.024;8.246;2023-07-20T08:41:42;9.63;;;1.77;;
22603;SDS011;11469;49.024;8.246;2023-07-20T08:44:08;6.75;;;1.85;;
22603;SDS011;11469;49.024;8.246;2023-07-20T08:46:35;17.50;;;2.50;;
22603;SDS011;11469;49.024;8.246;2023-07-20T08:49:03;4.07;;;1.60;;
22603;SDS011;11469;49.024;8.246;2023-07-20T08:51:29;4.45;;;1.50;;
22603;SDS011;11469;49.024;8.246;2023-07-20T08:53:55;13.65;;;1.50;;
22603;SDS011;11469;49.024;8.246;2023-07-20T08:56:20;7.00;;;1.98;;
22603;SDS011;11469;49.024;8.246;2023-07-20T08:58:50;2.65;;;1.35;;
22603;SDS011;11469;49.024;8.246;2023-07-20T09:01:17;3.72;;;1.52;;
22603;SDS011;11469;49.024;8.246;2023-07-20T09:03:44;4.75;;;1.38;;
22603;SDS011;11469;49.024;8.246;2023-07-20T09:06:11;5.28;;;1.75;;
22603;SDS011;11469;49.024;8.246;2023-07-20T09:08:38;10.38;;;1.98;;
22603;SDS011;11469;49.024;8.246;2023-07-20T09:11:04;8.98;;;1.80;;
22603;SDS011;11469;49.024;8.246;2023-07-20T09:13:29;10.48;;;1.70;;
22603;SDS011;11469;49.024;8.246;2023-07-20T09:15:54;6.35;;;1.55;;
22603;SDS011;11469;49.024;8.246;2023-07-20T09:18:38;5.18;;;1.77;;
22603;SDS011;11469;49.024;8.246;2023-07-20T09:21:06;5.70;;;1.60;;
22603;SDS011;11469;49.024;8.246;2023-07-20T09:26:12;11.02;;;1.45;;
22603;SDS011;11469;49.024;8.246;2023-07-20T09:28:44;8.00;;;2.28;;
22603;SDS011;11469;49.024;8.246;2023-07-20T09:31:17;6.10;;;3.15;;
22603;SDS011;11469;49.024;8.246;2023-07-20T09:33:43;6.35;;;2.25;;
22603;SDS011;11469;49.024;8.246;2023-07-20T09:36:10;6.70;;;1.83;;
22603;SDS011;11469;49.024;8.246;2023-07-20T09:38:41;9.30;;;2.30;;
22603;SDS011;11469;49.024;8.246;2023-07-20T09:41:13;4.97;;;1.65;;
22603;SDS011;11469;49.024;8.246;2023-07-20T09:43:43;8.02;;;1.55;;
22603;SDS011;11469;49.024;8.246;2023-07-20T09:46:12;7.22;;;1.48;;
22603;SDS011;11469;49.024;8.246;2023-07-20T09:48:37;3.25;;;1.30;;
22603;SDS011;11469;49.024;8.246;2023-07-20T09:51:03;4.57;;;1.67;;
22603;SDS011;11469;49.024;8.246;2023-07-20T09:53:32;3.63;;;1.38;;
22603;SDS011;11469;49.024;8.246;2023-07-20T09:55:59;4.53;;;1.50;;
22603;SDS011;11469;49.024;8.246;2023-07-20T09:58:27;4.10;;;1.38;;
22603;SDS011;11469;49.024;8.246;2023-07-20T10:00:56;11.90;;;1.83;;
22603;SDS011;11469;49.024;8.246;2023-07-20T10:03:22;7.68;;;1.70;;
22603;SDS011;11469;49.024;8.246;2023-07-20T10:05:58;2.75;;;1.52;;
22603;SDS011;11469;49.024;8.246;2023-07-20T10:08:28;7.82;;;2.03;;
22603;SDS011;11469;49.024;8.246;2023-07-20T10:10:55;5.03;;;1.70;;
22603;SDS011;11469;49.024;8.246;2023-07-20T10:13:25;3.38;;;1.60;;
22603;SDS011;11469;49.024;8.246;2023-07-20T10:16:01;3.95;;;1.50;;
22603;SDS011;11469;49.024;8.246;2023-07-20T10:18:30;8.18;;;1.80;;
22603;SDS011;11469;49.024;8.246;2023-07-20T10:21:02;2.55;;;1.48;;
22603;SDS011;11469;49.024;8.246;2023-07-20T10:23:32;5.13;;;1.90;;
22603;SDS011;11469;49.024;8.246;2023-07-20T10:25:58;4.45;;;1.10;;
22603;SDS011;11469;49.024;8.246;2023-07-20T10:28:24;2.00;;;1.50;;
22603;SDS011;11469;49.024;8.246;2023-07-20T10:30:51;2.55;;;1.30;;
22603;SDS011;11469;49.024;8.246;2023-07-20T10:33:16;6.40;;;1.38;;
22603;SDS011;11469;49.024;8.246;2023-07-20T10:35:51;6.05;;;1.25;;
22603;SDS011;11469;49.024;8.246;2023-07-20T10:38:20;6.28;;;1.50;;
22603;SDS011;11469;49.024;8.246;2023-07-20T10:41:04;2.92;;;1.50;;
22603;SDS011;11469;49.024;8.246;2023-07-20T10:43:29;5.57;;;1.35;;
22603;SDS011;11469;49.024;8.246;2023-07-20T10:45:55;2.30;;;1.05;;
22603;SDS011;11469;49.024;8.246;2023-07-20T10:48:24;8.85;;;1.42;;
22603;SDS011;11469;49.024;8.246;2023-07-20T10:51:11;3.92;;;1.27;;
22603;SDS011;11469;49.024;8.246;2023-07-20T10:53:39;3.83;;;1.23;;
22603;SDS011;11469;49.024;8.246;2023-07-20T10:56:15;5.35;;;1.60;;
22603;SDS011;11469;49.024;8.246;2023-07-20T10:58:44;5.32;;;1.58;;
22603;SDS011;11469;49.024;8.246;2023-07-20T11:01:13;3.55;;;1.25;;
22603;SDS011;11469;49.024;8.246;2023-07-20T11:03:40;2.13;;;0.90;;
22603;SDS011;11469;49.024;8.246;2023-07-20T11:11:29;3.92;;;1.23;;
22603;SDS011;11469;49.024;8.246;2023-07-20T11:14:02;5.05;;;1.45;;
22603;SDS011;11469;49.024;8.246;2023-07-20T11:16:36;3.35;;;1.30;;
22603;SDS011;11469;49.024;8.246;2023-07-20T11:21:37;2.78;;;1.17;;
22603;SDS011;11469;49.024;8.246;2023-07-20T11:24:04;2.20;;;1.13;;
22603;SDS011;11469;49.024;8.246;2023-07-20T11:26:30;4.13;;;1.55;;
22603;SDS011;11469;49.024;8.246;2023-07-20T11:29:04;2.23;;;1.03;;
22603;SDS011;11469;49.024;8.246;2023-07-20T11:31:29;6.60;;;1.30;;
22603;SDS011;11469;49.024;8.246;2023-07-20T11:33:54;2.17;;;1.20;;
22603;SDS011;11469;49.024;8.246;2023-07-20T11:36:20;2.38;;;1.08;;
22603;SDS011;11469;49.024;8.246;2023-07-20T11:38:45;1.98;;;1.10;;
22603;SDS011;11469;49.024;8.246;2023-07-20T11:41:11;5.53;;;1.08;;
22603;SDS011;11469;49.024;8.246;2023-07-20T11:43:38;2.55;;;1.20;;
22603;SDS011;11469;49.024;8.246;2023-07-20T11:46:04;2.50;;;1.60;;
22603;SDS011;11469;49.024;8.246;2023-07-20T11:48:30;1.70;;;1.20;;
22603;SDS011;11469;49.024;8.246;2023-07-20T11:50:56;4.00;;;1.30;;
22603;SDS011;11469;49.024;8.246;2023-07-20T11:53:21;3.65;;;1.17;;
22603;SDS011;11469;49.024;8.246;2023-07-20T11:55:47;19.10;;;1.70;;
22603;SDS011;11469;49.024;8.246;2023-07-20T11:58:12;3.00;;;1.27;;
22603;SDS011;11469;49.024;8.246;2023-07-20T12:00:41;3.10;;;1.25;;
22603;SDS011;11469;49.024;8.246;2023-07-20T12:03:09;2.10;;;1.13;;
22603;SDS011;11469;49.024;8.246;2023-07-20T12:05:37;2.55;;;1.17;;
22603;SDS011;11469;49.024;8.246;2023-07-20T12:08:03;4.30;;;0.98;;
22603;SDS011;11469;49.024;8.246;2023-07-20T12:10:29;2.97;;;1.10;;
22603;SDS011;11469;49.024;8.246;2023-07-20T12:13:00;2.55;;;1.00;;
22603;SDS011;11469;49.024;8.246;2023-07-20T12:15:27;5.03;;;1.30;;
22603;SDS011;11469;49.024;8.246;2023-07-20T12:17:55;3.45;;;1.60;;
22603;SDS011;11469;49.024;8.246;2023-07-20T12:20:26;2.97;;;1.27;;
22603;SDS011;11469;49.024;8.246;2023-07-20T12:22:52;3.30;;;1.00;;
22603;SDS011;11469;49.024;8.246;2023-07-20T12:25:17;2.10;;;1.10;;
22603;SDS011;11469;49.024;8.246;2023-07-20T12:27:45;2.22;;;1.20;;
22603;SDS011;11469;49.024;8.246;2023-07-20T12:30:10;1.98;;;0.98;;
22603;SDS011;11469;49.024;8.246;2023-07-20T12:32:39;3.03;;;1.35;;
22603;SDS011;11469;49.024;8.246;2023-07-20T12:35:04;1.67;;;1.05;;
22603;SDS011;11469;49.024;8.246;2023-07-20T12:37:31;2.40;;;1.10;;
22603;SDS011;11469;49.024;8.246;2023-07-20T12:39:56;2.53;;;1.08;;
22603;SDS011;11469;49.024;8.246;2023-07-20T12:42:22;3.47;;;1.25;;
22603;SDS011;11469;49.024;8.246;2023-07-20T12:44:48;2.88;;;1.23;;
22603;SDS011;11469;49.024;8.246;2023-07-20T12:47:16;2.72;;;0.80;;
22603;SDS011;11469;49.024;8.246;2023-07-20T12:49:42;4.30;;;0.90;;
22603;SDS011;11469;49.024;8.246;2023-07-20T12:52:10;3.83;;;1.10;;
22603;SDS011;11469;49.024;8.246;2023-07-20T12:54:36;2.05;;;0.90;;
22603;SDS011;11469;49.024;8.246;2023-07-20T12:57:01;3.65;;;0.95;;
22603;SDS011;11469;49.024;8.246;2023-07-20T12:59:28;2.55;;;1.10;;
22603;SDS011;11469;49.024;8.246;2023-07-20T13:01:53;1.95;;;0.88;;
22603;SDS011;11469;49.024;8.246;2023-07-20T13:04:19;3.53;;;1.50;;
22603;SDS011;11469;49.024;8.246;2023-07-20T13:06:44;2.88;;;1.08;;
22603;SDS011;11469;49.024;8.246;2023-07-20T13:09:09;2.22;;;1.20;;
22603;SDS011;11469;49.024;8.246;2023-07-20T13:11:35;4.45;;;1.20;;
22603;SDS011;11469;49.024;8.246;2023-07-20T13:14:00;3.80;;;0.70;;
22603;SDS011;11469;49.024;8.246;2023-07-20T13:16:26;2.65;;;1.25;;
22603;SDS011;11469;49.024;8.246;2023-07-20T13:18:51;1.17;;;0.93;;
22603;SDS011;11469;49.024;8.246;2023-07-20T13:21:16;4.20;;;1.10;;
22603;SDS011;11469;49.024;8.246;2023-07-20T13:23:45;2.75;;;1.15;;
22603;SDS011;11469;49.024;8.246;2023-07-20T13:26:11;4.75;;;1.10;;
22603;SDS011;11469;49.024;8.246;2023-07-20T13:28:37;2.55;;;1.00;;
22603;SDS011;11469;49.024;8.246;2023-07-20T13:31:02;1.38;;;0.80;;
22603;SDS011;11469;49.024;8.246;2023-07-20T13:33:28;4.20;;;1.05;;
22603;SDS011;11469;49.024;8.246;2023-07-20T13:35:54;1.50;;;1.00;;
22603;SDS011;11469;49.024;8.246;2023-07-20T13:38:19;3.38;;;1.08;;
22603;SDS011;11469;49.024;8.246;2023-07-20T13:40:45;1.60;;;0.90;;
22603;SDS011;11469;49.024;8.246;2023-07-20T13:43:11;1.50;;;0.90;;
22603;SDS011;11469;49.024;8.246;2023-07-20T13:45:36;2.05;;;0.90;;
22603;SDS011;11469;49.024;8.246;2023-07-20T13:48:02;4.97;;;1.15;;
22603;SDS011;11469;49.024;8.246;2023-07-20T13:50:27;4.88;;;0.82;;
22603;SDS011;11469;49.024;8.246;2023-07-20T13:52:53;5.18;;;0.82;;
22603;SDS011;11469;49.024;8.246;2023-07-20T13:55:18;2.45;;;0.98;;
22603;SDS011;11469;49.024;8.246;2023-07-20T13:57:44;4.50;;;0.95;;
22603;SDS011;11469;49.024;8.246;2023-07-20T14:00:10;3.10;;;1.25;;
22603;SDS011;11469;49.024;8.246;2023-07-20T14:02:36;5.50;;;0.80;;
22603;SDS011;11469;49.024;8.246;2023-07-20T14:05:02;4.38;;;1.10;;
22603;SDS011;11469;49.024;8.246;2023-07-20T14:07:27;1.80;;;0.90;;
22603;SDS011;11469;49.024;8.246;2023-07-20T14:09:53;1.98;;;0.80;;
22603;SDS011;11469;49.024;8.246;2023-07-20T14:12:18;1.63;;;0.80;;
22603;SDS011;11469;49.024;8.246;2023-07-20T14:14:43;2.15;;;1.00;;
22603;SDS011;11469;49.024;8.246;2023-07-20T14:17:09;5.55;;;1.33;;
22603;SDS011;11469;49.024;8.246;2023-07-20T14:19:36;5.03;;;1.00;;
22603;SDS011;11469;49.024;8.246;2023-07-20T14:22:02;2.25;;;1.05;;
22603;SDS011;11469;49.024;8.246;2023-07-20T14:24:28;1.08;;;0.90;;
22603;SDS011;11469;49.024;8.246;2023-07-20T14:26:54;1.70;;;1.00;;
22603;SDS011;11469;49.024;8.246;2023-07-20T14:29:20;4.03;;;1.00;;
22603;SDS011;11469;49.024;8.246;2023-07-20T14:31:45;2.83;;;1.10;;
22603;SDS011;11469;49.024;8.246;2023-07-20T14:34:15;1.73;;;1.00;;
22603;SDS011;11469;49.024;8.246;2023-07-20T14:36:44;1.92;;;1.10;;
22603;SDS011;11469;49.024;8.246;2023-07-20T14:39:09;1.92;;;1.00;;
22603;SDS011;11469;49.024;8.246;2023-07-20T14:41:35;2.40;;;1.15;;
22603;SDS011;11469;49.024;8.246;2023-07-20T14:44:00;3.63;;;1.10;;
22603;SDS011;11469;49.024;8.246;2023-07-20T14:46:25;1.95;;;1.02;;
22603;SDS011;11469;49.024;8.246;2023-07-20T14:48:51;3.63;;;1.00;;
22603;SDS011;11469;49.024;8.246;2023-07-20T14:51:17;3.33;;;1.33;;
22603;SDS011;11469;49.024;8.246;2023-07-20T14:53:42;2.38;;;1.00;;
22603;SDS011;11469;49.024;8.246;2023-07-20T14:56:07;5.07;;;1.10;;
22603;SDS011;11469;49.024;8.246;2023-07-20T14:58:33;1.70;;;0.90;;
22603;SDS011;11469;49.024;8.246;2023-07-20T15:00:58;2.03;;;1.00;;
22603;SDS011;11469;49.024;8.246;2023-07-20T15:03:24;3.30;;;1.40;;